Airfield :
LOGIN :

Register | Disclaimer

   EN    FR    IT 

 










Legend :    VFR   Marginal VFR   IFR   Intensive IFR   Very Intensive IFR
Visi :
Ceiling :
>= 8 km
>= 3000ft
5 to 8 km
1000 to 3000 ft
1500m to 5 km
500 to 1000 ft
800 to 1500m
200 to 500 ft
< 800m
< 200 ft
Symbols :   Thunderstorms  Fog  Heavy snow  Heavy precipitations  Wind > 20 kt
SIGMETs :     Misc.  Thunderstorms  Icing  Turbulence  Mountain Waves  Volcanic Ashes







- Airport Elevation : 408 ft
- IATA code : FKB


EDSB - Karlsruhe Baden Baden

CURRENT METAR :
  • 211020Z 22004KT 9999 FEW024 04/M00 Q1017

EXPIRED METARs :
  • 210950Z 22005KT 9999 FEW028 BKN037 05/00 Q1017
  • 210920Z 23006KT 210V270 9999 SCT023 04/00 Q1016
  • 210850Z 21005KT 190V250 9999 BKN022 BKN025 03/00 Q1016
  • 210820Z 22006KT 190V260 9999 BKN021 BKN041 03/00 Q1015
  • 210750Z 20006KT 170V240 9999 FEW020 SCT036 02/00 Q1015

TAF TAF EDSB
Valid from the 21 at 06:00 until the 22 at 06:00 UTC


210500Z 2106/2206 24005KT 9000 SCT010 BKN020
TEMPO 2106/2110 4000 BR BKN010
BECMG 2116/2119 17004KT
TEMPO 2122/2203 3500 RASN BKN008
TEMPO 2203/2206 4500 RA BKN010
No reported NOTAMs for that airfield.
1 SIGMET reported for the Langen FIR (EDGG) :
 
Severe icing
EDGG SIGMET 1 VALID 210930/211200 EDZF
EDGG LANGEN FIR SEV ICE OBS WI N4922 E01057 - N4838 E00942 - N4808 E00936 - N4742 E00728 - N4742 E00725 - N4843 E00750 - N4922 E01057 4000FT/FL070 MOV SE WKN=



MET'MAP, your aeronautical weather chart ! - Copyright ORBIFLY December 2007 - Disclaimer

ORBIFLY MET'MAP TEAM :

Programming & Development : Alexandra Zaïnal
Concept & Development : Baudouin d'Aumeries
Co-Development & Prog : Marc-Olivier Méhu
Technical & hardware support : Manuel Goepfert

Contact : metmap@orbifly.com




SOURCES & CREDITS :

   NOAA